Time;durP1;ratioP1;P1;durP2;ratioP2;P2;SDS_P1;SDS_P2;PMS_P1;PMS_P2;Temp;Humidity;BMP_temperature;BMP_pressure;BME280_temperature;BME280_humidity;BME280_pressure;Samples;Min_cycle;Max_cycle;Signal;HPM_P1;HPM_P2
2022/09/29 00:01:48;;;;;;;7.72;5.95;;;24.70;99.90;;;;;;1907215;74;21076;-85
2022/09/29 00:04:19;;;;;;;9.70;5.95;;;24.70;99.90;;;;;;1907652;75;21134;-83
2022/09/29 00:06:50;;;;;;;7.25;5.70;;;24.70;99.90;;;;;;1906943;75;21069;-85
2022/09/29 00:09:20;;;;;;;9.08;5.85;;;24.70;99.90;;;;;;1909429;74;21213;-82
2022/09/29 00:11:54;;;;;;;8.13;5.70;;;24.70;99.90;;;;;;1928986;74;21119;-82
2022/09/29 00:14:25;;;;;;;6.85;5.60;;;24.70;99.90;;;;;;1897139;74;21107;-83
2022/09/29 00:16:56;;;;;;;7.80;4.83;;;24.70;99.90;;;;;;1907030;74;21175;-85
2022/09/29 00:19:27;;;;;;;5.78;4.67;;;24.70;99.90;;;;;;1934531;73;21082;-84
2022/09/29 00:21:58;;;;;;;7.25;4.65;;;24.80;99.90;;;;;;1922208;74;21247;-84
2022/09/29 00:24:30;;;;;;;6.95;4.30;;;24.80;99.90;;;;;;1878046;76;21131;-82
2022/09/29 00:27:01;;;;;;;5.53;4.10;;;24.80;99.90;;;;;;1871297;76;21061;-82
2022/09/29 00:29:32;;;;;;;5.00;3.85;;;24.80;99.90;;;;;;1927518;73;21556;-82
2022/09/29 00:32:03;;;;;;;6.10;3.98;;;24.90;99.90;;;;;;1907055;74;21675;-81
2022/09/29 00:34:33;;;;;;;7.15;3.77;;;24.90;99.90;;;;;;1927668;73;21550;-84
2022/09/29 00:37:04;;;;;;;4.78;3.40;;;24.90;99.90;;;;;;1903564;74;21078;-84
2022/09/29 00:39:35;;;;;;;5.85;3.60;;;24.90;99.90;;;;;;1978157;71;21108;-83
2022/09/29 00:42:10;;;;;;;6.53;3.65;;;25.00;99.90;;;;;;1984562;71;21041;-82
2022/09/29 00:44:40;;;;;;;4.30;3.40;;;25.00;99.90;;;;;;1982442;72;21130;-83
2022/09/29 00:47:18;;;;;;;4.92;2.50;;;25.00;99.90;;;;;;1969646;72;21190;-83
2022/09/29 00:49:50;;;;;;;3.05;2.50;;;25.00;99.90;;;;;;1973551;71;21127;-73
2022/09/29 00:52:23;;;;;;;4.10;3.05;;;25.00;99.90;;;;;;1978664;71;21128;-72
2022/09/29 00:54:56;;;;;;;4.05;2.58;;;25.00;99.90;;;;;;1963757;71;21186;-72
2022/09/29 00:57:30;;;;;;;5.42;2.58;;;25.00;99.90;;;;;;1978146;71;21146;-71
2022/09/29 01:00:03;;;;;;;4.65;2.70;;;25.10;99.90;;;;;;1977377;71;21115;-72
2022/09/29 01:02:36;;;;;;;2.87;2.40;;;25.10;99.90;;;;;;1981776;71;21178;-72
2022/09/29 01:05:09;;;;;;;5.22;2.40;;;25.20;99.90;;;;;;1991011;71;21571;-74
2022/09/29 01:07:42;;;;;;;4.15;2.45;;;25.20;99.90;;;;;;1976898;71;21236;-74
2022/09/29 01:10:16;;;;;;;3.60;2.60;;;25.20;99.90;;;;;;1976870;71;21187;-73
2022/09/29 01:12:48;;;;;;;6.28;2.52;;;25.30;99.90;;;;;;1981243;71;21569;-73
2022/09/29 01:15:21;;;;;;;3.37;2.37;;;25.30;99.90;;;;;;1970183;71;21197;-74
2022/09/29 01:17:52;;;;;;;3.25;2.30;;;25.30;99.90;;;;;;1982070;71;21064;-73
2022/09/29 01:20:25;;;;;;;4.72;2.27;;;25.40;99.90;;;;;;1976716;71;21185;-79
2022/09/29 01:22:59;;;;;;;3.40;1.92;;;25.40;99.90;;;;;;1971778;71;21241;-85
2022/09/29 01:25:34;;;;;;;3.72;2.10;;;25.50;99.90;;;;;;1975516;71;21082;-84
2022/09/29 01:28:09;;;;;;;4.50;2.20;;;25.50;99.90;;;;;;1976645;71;21120;-84
2022/09/29 01:30:50;;;;;;;3.52;1.90;;;25.50;99.90;;;;;;1980021;71;21025;-85
2022/09/29 01:33:23;;;;;;;4.47;2.37;;;25.60;99.90;;;;;;1977575;71;21088;-83
2022/09/29 01:35:57;;;;;;;2.98;2.12;;;25.60;99.90;;;;;;1978114;71;21127;-84
2022/09/29 01:38:30;;;;;;;3.52;1.98;;;25.60;99.90;;;;;;1982686;71;21118;-84
2022/09/29 01:41:01;;;;;;;3.80;2.17;;;25.60;99.90;;;;;;1979518;71;21192;-84
2022/09/29 01:43:35;;;;;;;3.85;2.20;;;25.70;99.90;;;;;;1981413;71;21594;-85
2022/09/29 01:46:08;;;;;;;5.78;2.47;;;25.70;99.90;;;;;;1981258;71;21142;-85
2022/09/29 01:48:41;;;;;;;2.83;2.08;;;25.80;99.90;;;;;;1981877;71;21158;-85
2022/09/29 01:51:14;;;;;;;4.85;2.15;;;25.80;99.90;;;;;;1976270;71;21151;-85
2022/09/29 01:53:47;;;;;;;5.60;1.60;;;25.90;99.90;;;;;;1976818;71;21187;-85
2022/09/29 01:56:20;;;;;;;4.40;1.90;;;25.90;99.90;;;;;;1974636;71;21131;-86
2022/09/29 01:58:50;;;;;;;3.17;1.30;;;25.90;99.90;;;;;;1978660;71;21193;-86
2022/09/29 02:01:24;;;;;;;2.42;1.37;;;26.00;99.90;;;;;;1982209;71;21134;-86
2022/09/29 02:03:57;;;;;;;3.60;1.50;;;26.00;99.90;;;;;;1982368;71;21138;-84
2022/09/29 02:06:30;;;;;;;3.02;1.45;;;26.00;99.90;;;;;;1978501;71;21115;-85
2022/09/29 02:09:02;;;;;;;6.10;1.50;;;26.00;99.90;;;;;;1982314;71;21079;-85
2022/09/29 02:11:35;;;;;;;3.60;1.40;;;26.00;99.90;;;;;;1981528;71;21096;-85
2022/09/29 02:14:08;;;;;;;2.33;1.57;;;26.10;99.90;;;;;;1982677;71;21087;-85
2022/09/29 02:16:41;;;;;;;5.28;1.25;;;26.10;99.90;;;;;;1982226;71;21111;-86
2022/09/29 02:19:14;;;;;;;2.70;1.42;;;26.00;99.90;;;;;;1931334;73;21123;-86
2022/09/29 02:21:45;;;;;;;3.08;1.25;;;26.10;99.90;;;;;;1888212;74;21130;-85
2022/09/29 02:24:16;;;;;;;2.87;1.20;;;26.00;99.90;;;;;;1888656;74;21222;-85
2022/09/29 02:26:47;;;;;;;2.65;1.12;;;26.00;99.90;;;;;;1893429;74;21179;-85
2022/09/29 02:29:19;;;;;;;3.15;1.30;;;26.00;99.90;;;;;;1930519;73;21155;-85
2022/09/29 02:31:50;;;;;;;3.72;2.70;;;26.00;99.90;;;;;;1926023;73;21645;-83
2022/09/29 02:34:25;;;;;;;3.20;1.32;;;25.90;99.90;;;;;;1928724;73;21072;-85
2022/09/29 02:36:57;;;;;;;2.27;1.20;;;25.90;99.90;;;;;;1929806;73;21469;-84
2022/09/29 02:39:30;;;;;;;5.70;4.22;;;25.90;99.90;;;;;;1926587;73;21079;-85
2022/09/29 02:42:05;;;;;;;4.42;3.05;;;25.90;99.90;;;;;;1925632;73;21114;-84
2022/09/29 02:44:38;;;;;;;5.80;2.10;;;25.90;99.90;;;;;;1920772;73;21168;-84
2022/09/29 02:47:09;;;;;;;3.92;1.50;;;25.90;99.90;;;;;;1889129;74;21128;-84
2022/09/29 02:49:43;;;;;;;2.15;1.00;;;25.90;99.90;;;;;;1891235;75;21073;-85
2022/09/29 02:52:16;;;;;;;5.20;1.50;;;25.90;99.90;;;;;;1926879;73;21065;-85
2022/09/29 02:54:49;;;;;;;4.00;1.00;;;25.90;99.90;;;;;;1926438;73;21180;-86
2022/09/29 02:57:30;;;;;;;2.12;1.30;;;25.90;99.90;;;;;;1919065;73;21186;-85
2022/09/29 02:59:59;;;;;;;3.02;1.10;;;25.90;99.90;;;;;;1888587;75;21188;-84
2022/09/29 03:02:30;;;;;;;1.72;0.80;;;25.90;99.90;;;;;;1893332;74;21183;-86
2022/09/29 03:05:01;;;;;;;4.35;1.70;;;25.90;99.90;;;;;;1889914;75;21706;-86
2022/09/29 03:07:32;;;;;;;1.77;0.90;;;25.90;99.90;;;;;;1892062;74;21194;-84
2022/09/29 03:10:02;;;;;;;3.25;0.90;;;26.00;99.90;;;;;;1926321;74;21243;-85
2022/09/29 03:12:33;;;;;;;5.42;1.50;;;26.00;99.90;;;;;;1926808;74;21069;-84
2022/09/29 03:15:05;;;;;;;3.47;0.90;;;26.10;99.90;;;;;;1925520;74;21194;-84
2022/09/29 03:17:36;;;;;;;2.90;1.05;;;26.20;99.90;;;;;;1925785;74;21166;-85
2022/09/29 03:20:09;;;;;;;3.17;1.15;;;26.30;99.90;;;;;;1918421;73;21105;-86
2022/09/29 03:22:40;;;;;;;3.70;1.35;;;26.40;99.90;;;;;;1986696;71;21083;-85
2022/09/29 03:25:15;;;;;;;2.90;1.30;;;26.50;99.90;;;;;;1973132;71;21657;-85
2022/09/29 03:27:46;;;;;;;2.85;1.40;;;26.40;99.90;;;;;;1988582;71;21189;-86
2022/09/29 03:30:18;;;;;;;3.70;1.40;;;26.40;99.90;;;;;;1982222;71;21151;-85
2022/09/29 03:32:49;;;;;;;6.12;1.85;;;26.40;99.90;;;;;;1977740;71;21044;-86
2022/09/29 03:35:19;;;;;;;3.02;1.67;;;26.30;99.90;;;;;;1981383;72;21123;-86
2022/09/29 03:37:54;;;;;;;2.55;1.20;;;26.30;99.90;;;;;;1983800;71;21111;-86
2022/09/29 03:40:25;;;;;;;2.37;1.37;;;26.40;99.90;;;;;;1983842;71;21141;-85
2022/09/29 03:42:58;;;;;;;3.92;1.40;;;26.40;99.90;;;;;;1979455;71;21782;-85
2022/09/29 03:45:32;;;;;;;2.98;1.30;;;26.40;99.90;;;;;;1987968;71;21111;-85
2022/09/29 03:48:03;;;;;;;3.17;1.12;;;26.50;99.90;;;;;;1984780;71;21087;-84
2022/09/29 03:50:34;;;;;;;3.72;1.70;;;26.50;99.90;;;;;;1982523;71;21150;-85
2022/09/29 03:53:05;;;;;;;2.30;1.00;;;26.50;99.90;;;;;;1934556;73;21219;-85
2022/09/29 03:55:37;;;;;;;2.42;1.72;;;26.50;99.90;;;;;;1908438;75;21143;-84
2022/09/29 03:58:07;;;;;;;2.75;0.95;;;26.50;99.90;;;;;;1906849;75;21183;-84
2022/09/29 04:00:38;;;;;;;1.75;0.90;;;26.50;99.90;;;;;;1905268;73;21154;-85
2022/09/29 04:03:09;;;;;;;5.03;1.40;;;26.50;99.90;;;;;;1908494;73;21147;-84
2022/09/29 04:05:40;;;;;;;3.67;1.35;;;26.60;99.90;;;;;;1907699;73;21059;-86
2022/09/29 04:08:11;;;;;;;2.25;0.85;;;26.60;99.90;;;;;;1920951;73;21127;-87
2022/09/29 04:10:42;;;;;;;2.17;0.88;;;26.60;99.90;;;;;;1893279;75;21108;-86
2022/09/29 04:13:13;;;;;;;1.65;0.70;;;26.70;99.90;;;;;;1892551;76;21063;-86
2022/09/29 04:15:45;;;;;;;4.25;0.70;;;26.70;99.90;;;;;;1926050;73;21137;-86
2022/09/29 04:18:16;;;;;;;2.02;0.80;;;26.70;99.90;;;;;;1927890;74;21045;-85
2022/09/29 04:20:47;;;;;;;2.20;0.80;;;26.70;99.90;;;;;;1922021;73;21263;-86
2022/09/29 04:23:18;;;;;;;4.78;1.82;;;26.70;99.90;;;;;;1886849;74;21180;-86
2022/09/29 04:25:48;;;;;;;3.92;1.05;;;26.70;99.90;;;;;;1923769;74;21182;-85
2022/09/29 04:28:19;;;;;;;3.98;1.10;;;26.80;99.90;;;;;;1924684;74;21160;-85
2022/09/29 04:30:50;;;;;;;2.67;1.30;;;26.80;99.90;;;;;;1932589;73;21202;-85
2022/09/29 04:33:20;;;;;;;2.27;1.22;;;26.80;99.90;;;;;;1920115;74;21189;-84
2022/09/29 04:35:51;;;;;;;3.02;0.88;;;26.80;99.90;;;;;;1920136;75;21202;-85
2022/09/29 04:38:22;;;;;;;1.77;0.82;;;26.80;99.90;;;;;;1913611;74;21141;-84
2022/09/29 04:40:53;;;;;;;2.00;1.20;;;26.80;99.90;;;;;;1929467;73;21154;-85
2022/09/29 04:43:24;;;;;;;2.87;1.02;;;26.70;99.90;;;;;;1928991;73;21136;-85
2022/09/29 04:45:57;;;;;;;2.75;0.80;;;26.60;99.90;;;;;;1926734;74;21124;-85
2022/09/29 04:48:28;;;;;;;2.30;1.32;;;26.50;99.90;;;;;;1924419;74;21136;-86
2022/09/29 04:51:01;;;;;;;3.90;0.90;;;26.50;99.90;;;;;;1925541;74;21536;-85
2022/09/29 04:53:32;;;;;;;2.58;0.88;;;26.40;99.90;;;;;;1919578;73;21124;-84
2022/09/29 04:56:05;;;;;;;2.12;1.00;;;26.40;99.90;;;;;;1927005;74;21136;-84
2022/09/29 04:58:36;;;;;;;3.22;1.00;;;26.40;99.90;;;;;;1922126;74;21138;-85
2022/09/29 05:01:09;;;;;;;3.87;0.88;;;26.50;99.90;;;;;;1929032;73;21157;-84
2022/09/29 05:03:41;;;;;;;3.95;0.60;;;26.60;99.90;;;;;;1905824;74;21288;-85
2022/09/29 05:06:12;;;;;;;2.12;0.50;;;26.60;99.90;;;;;;1925536;73;21062;-85
2022/09/29 05:08:42;;;;;;;4.78;1.35;;;26.70;99.90;;;;;;1912697;74;21156;-85
2022/09/29 05:11:13;;;;;;;4.70;1.40;;;26.80;99.90;;;;;;1906652;75;21191;-84
2022/09/29 05:13:44;;;;;;;5.00;1.40;;;26.80;99.90;;;;;;1926046;73;21070;-84
2022/09/29 05:16:15;;;;;;;4.83;3.00;;;26.80;99.90;;;;;;1893602;75;21634;-85
2022/09/29 05:18:45;;;;;;;3.85;0.98;;;26.80;99.90;;;;;;1927643;74;21160;-85
2022/09/29 05:21:16;;;;;;;3.72;0.70;;;26.70;99.90;;;;;;1911282;74;21234;-85
2022/09/29 05:23:48;;;;;;;3.05;0.60;;;26.70;99.90;;;;;;1913018;73;21117;-85
2022/09/29 05:26:21;;;;;;;3.92;0.90;;;26.60;99.90;;;;;;1892711;74;21137;-86
2022/09/29 05:28:52;;;;;;;3.72;1.15;;;26.60;99.90;;;;;;1897538;75;21243;-86
2022/09/29 05:31:23;;;;;;;2.70;0.70;;;26.60;99.90;;;;;;1928575;73;21058;-85
2022/09/29 05:33:56;;;;;;;1.85;0.70;;;26.70;99.90;;;;;;1891673;75;21078;-84
2022/09/29 05:36:26;;;;;;;2.55;0.70;;;26.80;99.90;;;;;;1918400;74;21104;-84
2022/09/29 05:38:57;;;;;;;2.60;0.90;;;26.90;99.90;;;;;;1922905;73;21096;-84
2022/09/29 05:41:28;;;;;;;3.05;0.78;;;27.00;99.90;;;;;;1918991;73;21148;-85
2022/09/29 05:44:00;;;;;;;2.58;1.07;;;26.90;99.90;;;;;;1969830;71;21240;-85
2022/09/29 05:46:31;;;;;;;2.17;0.90;;;26.90;99.90;;;;;;1966096;72;21562;-85
2022/09/29 05:49:02;;;;;;;2.08;0.78;;;26.90;99.90;;;;;;1966570;71;21231;-84
2022/09/29 05:51:32;;;;;;;2.72;0.90;;;26.80;99.90;;;;;;1971882;71;21108;-84
2022/09/29 05:54:03;;;;;;;3.15;0.80;;;26.60;99.90;;;;;;1966703;72;21169;-84
2022/09/29 05:56:34;;;;;;;3.25;1.30;;;26.50;99.90;;;;;;1941202;72;21200;-85
2022/09/29 05:59:05;;;;;;;1.80;0.78;;;26.40;99.90;;;;;;1976639;71;21685;-84
2022/09/29 06:01:36;;;;;;;1.98;0.82;;;26.30;99.90;;;;;;1988603;71;21186;-85
2022/09/29 06:04:06;;;;;;;2.70;1.10;;;26.30;99.90;;;;;;1981477;71;21168;-84
2022/09/29 06:06:39;;;;;;;2.10;1.00;;;26.20;99.90;;;;;;1981071;71;21116;-85
2022/09/29 06:09:12;;;;;;;3.08;1.10;;;26.10;99.90;;;;;;1994517;71;21147;-83
2022/09/29 06:11:44;;;;;;;2.62;1.10;;;26.10;99.90;;;;;;1922128;73;21115;-83
2022/09/29 06:14:15;;;;;;;3.17;1.22;;;26.00;99.90;;;;;;1978894;72;21170;-85
2022/09/29 06:16:46;;;;;;;1.67;0.88;;;26.00;99.90;;;;;;1958909;72;21266;-85
2022/09/29 06:19:17;;;;;;;1.50;0.80;;;25.90;99.90;;;;;;1976118;71;21119;-84
2022/09/29 06:21:49;;;;;;;2.95;1.32;;;25.90;99.90;;;;;;1982478;72;21135;-85
2022/09/29 06:24:20;;;;;;;2.17;0.80;;;25.90;99.90;;;;;;1980893;71;21409;-84
2022/09/29 06:26:50;;;;;;;3.33;0.85;;;25.80;99.90;;;;;;1977118;72;21508;-85
2022/09/29 06:29:21;;;;;;;1.40;0.62;;;25.80;99.90;;;;;;1985889;71;21036;-85
2022/09/29 06:31:53;;;;;;;1.70;0.70;;;25.80;99.90;;;;;;1937516;73;21104;-84
2022/09/29 06:34:23;;;;;;;2.77;0.82;;;25.80;99.90;;;;;;1988014;71;21205;-87
2022/09/29 06:39:26;;;;;;;2.08;0.80;;;25.80;99.90;;;;;;1974056;71;21097;-88
2022/09/29 06:41:57;;;;;;;3.55;1.30;;;25.80;99.90;;;;;;1957582;72;21179;-89
2022/09/29 06:44:29;;;;;;;2.50;0.85;;;25.80;99.90;;;;;;1961365;72;21145;-90
2022/09/29 06:47:01;;;;;;;1.70;0.98;;;25.80;99.90;;;;;;1967497;72;21502;-87
2022/09/29 06:49:36;;;;;;;1.52;0.72;;;25.90;99.90;;;;;;1958386;71;21205;-89
2022/09/29 06:52:14;;;;;;;7.10;0.98;;;25.80;99.90;;;;;;1978084;72;21192;-89
2022/09/29 06:54:46;;;;;;;1.52;0.42;;;25.80;99.90;;;;;;1956265;72;21118;-88
2022/09/29 06:57:19;;;;;;;1.85;0.50;;;25.80;99.90;;;;;;1952288;73;21136;-86
2022/09/29 06:59:53;;;;;;;1.32;0.42;;;25.80;99.90;;;;;;1964609;72;21547;-90
2022/09/29 07:02:25;;;;;;;1.10;0.50;;;25.80;99.90;;;;;;1961035;72;21584;-89
2022/09/29 07:05:00;;;;;;;2.72;0.55;;;25.90;99.90;;;;;;1955241;73;21114;-88
2022/09/29 07:07:34;;;;;;;1.22;0.70;;;25.90;99.90;;;;;;1956063;73;21121;-88
2022/09/29 07:10:08;;;;;;;3.17;1.35;;;25.90;99.90;;;;;;1960811;72;21109;-88
2022/09/29 07:12:45;;;;;;;1.17;0.45;;;25.90;99.90;;;;;;1960219;73;21599;-89
2022/09/29 07:15:19;;;;;;;1.17;0.50;;;25.90;99.90;;;;;;1958894;73;21058;-87
2022/09/29 07:18:00;;;;;;;2.62;0.80;;;25.90;99.90;;;;;;1955406;73;21161;-89
2022/09/29 07:20:32;;;;;;;2.95;0.70;;;25.90;99.90;;;;;;1959726;72;21234;-87
2022/09/29 07:23:08;;;;;;;2.45;0.60;;;25.90;99.90;;;;;;1957996;73;21175;-89
2022/09/29 07:25:48;;;;;;;1.45;0.42;;;25.90;99.90;;;;;;1956540;73;21062;-88
2022/09/29 07:28:20;;;;;;;3.67;0.68;;;25.90;99.90;;;;;;1961016;72;21139;-89
2022/09/29 07:31:03;;;;;;;1.57;0.42;;;25.90;99.90;;;;;;1962817;72;21140;-90
2022/09/29 07:33:53;;;;;;;1.10;0.40;;;26.00;99.90;;;;;;1940606;72;21224;-90
2022/09/29 07:36:27;;;;;;;1.27;0.53;;;26.10;99.90;;;;;;1953495;72;21082;-88
2022/09/29 07:39:00;;;;;;;1.50;0.50;;;26.10;99.90;;;;;;1957405;72;21581;-90
2022/09/29 07:41:33;;;;;;;1.60;0.70;;;26.10;99.90;;;;;;1979573;71;21040;-90
2022/09/29 07:44:08;;;;;;;2.55;0.70;;;26.10;99.90;;;;;;2005227;71;21089;-89
2022/09/29 07:46:43;;;;;;;3.05;0.72;;;26.20;99.90;;;;;;1949838;72;21118;-90
2022/09/29 07:49:19;;;;;;;1.82;0.60;;;26.20;99.90;;;;;;1891173;74;21106;-90
2022/09/29 07:51:52;;;;;;;2.27;0.90;;;26.30;99.90;;;;;;1991288;71;21111;-90
2022/09/29 07:54:37;;;;;;;2.80;0.90;;;26.30;99.90;;;;;;2000540;71;21221;-90
2022/09/29 07:57:09;;;;;;;1.32;0.50;;;26.40;99.90;;;;;;1975958;71;21075;-85
2022/09/29 07:59:45;;;;;;;2.20;0.50;;;26.40;99.90;;;;;;1977791;72;21131;-89
2022/09/29 08:02:20;;;;;;;3.33;0.90;;;26.40;99.90;;;;;;1967700;71;21672;-88
2022/09/29 08:04:53;;;;;;;1.60;0.45;;;26.50;99.90;;;;;;1987375;71;21131;-90
2022/09/29 08:07:25;;;;;;;2.60;0.60;;;26.50;99.90;;;;;;1985445;71;21548;-86
2022/09/29 08:09:56;;;;;;;2.92;1.00;;;26.60;99.90;;;;;;1986688;71;21221;-86
2022/09/29 08:12:31;;;;;;;3.35;0.40;;;26.60;99.90;;;;;;1982783;71;21199;-84
2022/09/29 08:15:04;;;;;;;1.60;0.40;;;26.60;99.90;;;;;;1910913;73;21244;-86
2022/09/29 08:17:40;;;;;;;2.23;0.50;;;26.60;99.90;;;;;;1967570;72;21135;-87
2022/09/29 08:20:14;;;;;;;1.60;0.68;;;26.60;99.90;;;;;;1980786;71;21163;-87
2022/09/29 08:22:49;;;;;;;2.95;0.65;;;26.60;99.90;;;;;;1939779;72;21625;-89
2022/09/29 08:25:25;;;;;;;1.30;0.50;;;26.60;99.90;;;;;;1920707;73;21130;-90
2022/09/29 08:27:56;;;;;;;3.08;0.50;;;26.60;99.90;;;;;;1946075;73;21243;-90
2022/09/29 08:30:31;;;;;;;1.25;0.47;;;26.50;99.90;;;;;;1914230;74;21043;-88
2022/09/29 08:33:13;;;;;;;1.85;0.60;;;26.50;99.90;;;;;;1927613;73;21107;-86
2022/09/29 08:35:42;;;;;;;2.50;0.42;;;26.50;99.90;;;;;;1917971;73;21532;-85
2022/09/29 08:38:15;;;;;;;6.15;1.17;;;26.50;99.90;;;;;;1920356;73;21228;-87
2022/09/29 08:40:47;;;;;;;1.55;0.72;;;26.50;99.90;;;;;;1934710;72;21540;-89
2022/09/29 08:43:25;;;;;;;1.92;0.60;;;26.50;99.90;;;;;;1928511;73;21183;-82
2022/09/29 08:46:04;;;;;;;5.67;1.42;;;26.50;99.90;;;;;;1931039;73;21207;-82
2022/09/29 08:48:37;;;;;;;3.17;1.05;;;26.40;99.90;;;;;;1953973;72;21087;-86
2022/09/29 08:51:14;;;;;;;3.75;0.70;;;26.30;99.90;;;;;;1923242;73;21093;-83
2022/09/29 08:53:52;;;;;;;2.80;0.62;;;26.30;99.90;;;;;;1931782;73;21592;-83
2022/09/29 08:56:21;;;;;;;1.70;0.68;;;26.20;99.90;;;;;;1939740;72;21123;-83
2022/09/29 08:58:53;;;;;;;1.57;0.60;;;26.10;99.90;;;;;;1953589;72;21165;-74
2022/09/29 09:01:26;;;;;;;1.60;0.60;;;26.00;99.90;;;;;;1944129;73;21982;-74
2022/09/29 09:03:59;;;;;;;1.10;0.50;;;25.90;99.90;;;;;;1924841;73;21160;-74
2022/09/29 09:06:32;;;;;;;1.17;0.50;;;25.90;99.90;;;;;;1949460;73;21243;-75
2022/09/29 09:09:04;;;;;;;1.00;0.50;;;25.90;99.90;;;;;;1930070;73;21119;-75
2022/09/29 09:11:37;;;;;;;3.22;0.60;;;25.90;99.90;;;;;;1931261;73;21148;-74
2022/09/29 09:14:10;;;;;;;1.42;0.60;;;25.80;99.90;;;;;;1931624;73;21189;-74
2022/09/29 09:16:46;;;;;;;2.75;0.55;;;25.80;99.90;;;;;;1930846;72;21103;-74
2022/09/29 09:19:19;;;;;;;0.93;0.47;;;25.80;99.90;;;;;;1922153;73;21532;-74
2022/09/29 09:21:53;;;;;;;1.57;0.82;;;25.80;99.90;;;;;;1929555;73;21676;-75
2022/09/29 09:24:26;;;;;;;1.80;0.70;;;25.70;99.90;;;;;;1951650;73;21114;-73
2022/09/29 09:26:58;;;;;;;1.20;0.60;;;25.70;99.90;;;;;;1941278;73;21118;-75
2022/09/29 09:29:30;;;;;;;1.05;0.50;;;25.70;99.90;;;;;;1930347;73;21554;-74
2022/09/29 09:32:04;;;;;;;1.40;0.60;;;25.70;99.90;;;;;;1937703;73;21097;-74
2022/09/29 09:34:37;;;;;;;1.45;0.78;;;25.60;99.90;;;;;;1934793;73;21129;-74
2022/09/29 09:37:10;;;;;;;1.50;0.75;;;25.60;99.90;;;;;;1935734;73;21141;-74
2022/09/29 09:39:43;;;;;;;1.57;0.75;;;25.60;99.90;;;;;;1941721;72;21650;-75
2022/09/29 09:42:17;;;;;;;1.90;0.60;;;25.60;99.90;;;;;;1934135;72;22541;-74
2022/09/29 09:44:50;;;;;;;1.20;0.55;;;25.50;99.90;;;;;;1923888;73;21099;-75
2022/09/29 09:47:21;;;;;;;2.33;0.90;;;25.50;99.90;;;;;;1933776;73;21193;-75
2022/09/29 09:49:55;;;;;;;2.52;0.78;;;25.50;99.90;;;;;;1926126;73;21127;-74
2022/09/29 09:52:28;;;;;;;3.77;1.20;;;25.50;99.90;;;;;;1939667;73;21146;-76
2022/09/29 09:55:02;;;;;;;1.90;0.80;;;25.50;99.90;;;;;;1937879;72;21221;-75
2022/09/29 09:57:33;;;;;;;3.77;0.78;;;25.50;99.90;;;;;;1922974;73;21103;-75
2022/09/29 10:00:07;;;;;;;2.58;1.00;;;25.50;99.90;;;;;;1924746;73;21749;-75
2022/09/29 10:02:39;;;;;;;4.03;0.90;;;25.50;99.90;;;;;;1947999;72;21905;-75
2022/09/29 10:05:13;;;;;;;1.75;0.70;;;25.50;99.90;;;;;;1937171;73;21116;-74
2022/09/29 10:07:45;;;;;;;1.35;0.57;;;25.50;99.90;;;;;;1921023;73;21119;-75
2022/09/29 10:10:18;;;;;;;2.22;0.90;;;25.50;99.90;;;;;;1952504;73;21630;-75
2022/09/29 10:12:51;;;;;;;2.27;0.78;;;25.50;99.90;;;;;;1920472;73;21119;-74
2022/09/29 10:15:26;;;;;;;1.75;0.72;;;25.50;99.90;;;;;;1927767;73;21110;-74
2022/09/29 10:17:59;;;;;;;1.42;0.70;;;25.60;99.90;;;;;;1930877;73;21374;-75
2022/09/29 10:20:32;;;;;;;2.75;1.07;;;25.60;99.90;;;;;;1937023;73;21134;-76
2022/09/29 10:23:05;;;;;;;1.72;0.78;;;25.50;99.90;;;;;;1927148;73;21222;-75
2022/09/29 10:25:38;;;;;;;3.08;1.00;;;25.60;99.90;;;;;;1926965;73;21162;-76
2022/09/29 10:28:12;;;;;;;2.00;0.80;;;25.60;99.90;;;;;;1930642;73;21633;-75
2022/09/29 10:30:43;;;;;;;1.80;0.70;;;25.60;99.90;;;;;;1924807;73;21723;-75
2022/09/29 10:33:16;;;;;;;1.77;0.70;;;25.60;99.90;;;;;;1923098;73;21098;-76
2022/09/29 10:35:51;;;;;;;2.05;0.85;;;25.50;99.90;;;;;;1920232;74;21135;-74
2022/09/29 10:38:23;;;;;;;2.35;1.02;;;25.50;99.90;;;;;;1932101;73;21103;-74
2022/09/29 10:40:57;;;;;;;4.80;1.05;;;25.50;99.90;;;;;;1928076;73;21204;-73
2022/09/29 10:43:30;;;;;;;3.58;0.80;;;25.50;99.90;;;;;;1925192;73;21228;-72
2022/09/29 10:46:01;;;;;;;2.62;1.20;;;25.50;99.90;;;;;;1928505;73;21605;-74
2022/09/29 10:48:32;;;;;;;2.60;1.10;;;25.50;99.90;;;;;;1920439;74;21173;-74
2022/09/29 10:51:05;;;;;;;3.83;1.30;;;25.50;99.90;;;;;;1923489;73;21083;-74
2022/09/29 10:53:38;;;;;;;3.33;1.10;;;25.50;99.90;;;;;;1907656;74;21585;-74
2022/09/29 10:56:11;;;;;;;2.20;0.88;;;25.50;99.90;;;;;;1928000;73;21563;-74
2022/09/29 10:58:44;;;;;;;1.70;1.00;;;25.40;99.90;;;;;;1914844;73;21438;-74
2022/09/29 11:01:18;;;;;;;1.95;1.05;;;25.40;99.90;;;;;;1916115;73;21134;-74
2022/09/29 11:03:51;;;;;;;1.80;0.98;;;25.40;99.90;;;;;;1913968;73;21707;-74
2022/09/29 11:06:26;;;;;;;2.65;0.85;;;25.40;99.90;;;;;;1920514;73;21151;-74
2022/09/29 11:08:57;;;;;;;2.35;1.30;;;25.40;99.90;;;;;;1912275;73;21157;-74
2022/09/29 11:11:31;;;;;;;1.50;1.00;;;25.40;99.90;;;;;;1917664;73;21574;-73
2022/09/29 11:14:02;;;;;;;3.37;1.10;;;25.30;99.90;;;;;;1898066;75;21157;-73
2022/09/29 11:16:36;;;;;;;5.65;1.60;;;25.30;99.90;;;;;;1920767;73;21184;-73
2022/09/29 11:19:09;;;;;;;3.02;1.82;;;25.30;99.90;;;;;;1922639;73;21273;-73
2022/09/29 11:21:42;;;;;;;2.33;1.70;;;25.30;99.90;;;;;;1917433;73;21142;-74
2022/09/29 11:24:16;;;;;;;5.50;2.00;;;25.30;99.90;;;;;;1892377;74;21799;-75
2022/09/29 11:26:49;;;;;;;1.85;1.40;;;25.30;99.90;;;;;;1926494;73;21068;-75
2022/09/29 11:29:40;;;;;;;3.52;1.50;;;25.30;99.90;;;;;;1905458;74;21209;-74
2022/09/29 11:32:14;;;;;;;2.08;1.40;;;25.20;99.90;;;;;;1856502;76;21567;-74
2022/09/29 11:34:46;;;;;;;2.55;1.30;;;25.20;99.90;;;;;;1924281;73;21705;-73
2022/09/29 11:37:19;;;;;;;2.25;1.32;;;25.20;99.90;;;;;;1923665;73;21099;-74
2022/09/29 11:39:52;;;;;;;4.03;1.92;;;25.20;99.90;;;;;;1916259;73;21169;-72
2022/09/29 11:42:24;;;;;;;2.15;1.55;;;25.20;99.90;;;;;;1917723;73;21686;-72
2022/09/29 11:44:57;;;;;;;2.27;1.55;;;25.10;99.90;;;;;;1878821;76;21171;-72
2022/09/29 11:47:31;;;;;;;4.78;2.42;;;25.10;99.90;;;;;;1880715;75;21497;-83
2022/09/29 11:50:02;;;;;;;4.30;2.30;;;25.10;99.90;;;;;;1825108;77;21251;-87
2022/09/29 11:52:36;;;;;;;3.22;1.98;;;25.10;99.90;;;;;;1873090;76;21183;-88
2022/09/29 11:55:10;;;;;;;2.47;1.40;;;25.10;99.90;;;;;;1881867;75;21508;-87
2022/09/29 11:57:43;;;;;;;2.52;1.50;;;25.20;99.90;;;;;;1951635;71;21108;-84
2022/09/29 12:00:16;;;;;;;2.83;1.60;;;25.20;99.90;;;;;;1960998;72;21623;-84
2022/09/29 12:02:49;;;;;;;2.52;1.87;;;25.30;99.90;;;;;;1963232;72;21530;-84
2022/09/29 12:05:22;;;;;;;4.33;1.82;;;25.30;99.90;;;;;;1963751;73;21132;-85
2022/09/29 12:07:56;;;;;;;2.45;1.77;;;25.30;99.90;;;;;;1968375;71;21059;-86
2022/09/29 12:10:29;;;;;;;2.85;2.20;;;25.30;99.90;;;;;;1969662;71;21162;-85
2022/09/29 12:13:02;;;;;;;4.30;2.08;;;25.30;99.90;;;;;;1983135;71;21095;-86
2022/09/29 12:15:34;;;;;;;2.83;2.17;;;25.30;99.90;;;;;;1969045;71;21156;-86
2022/09/29 12:18:09;;;;;;;5.42;2.40;;;25.30;99.90;;;;;;1959744;71;21150;-85
2022/09/29 12:20:42;;;;;;;5.33;2.30;;;25.30;99.90;;;;;;1961585;72;21213;-85
2022/09/29 12:23:15;;;;;;;3.33;1.80;;;25.30;99.90;;;;;;1963075;72;21197;-84
2022/09/29 12:25:49;;;;;;;6.70;2.10;;;25.20;99.90;;;;;;1921219;74;21259;-84
2022/09/29 12:28:22;;;;;;;3.95;1.90;;;25.20;99.90;;;;;;1945053;72;21139;-84
2022/09/29 12:30:55;;;;;;;2.35;1.80;;;25.20;99.90;;;;;;1958065;72;21653;-86
2022/09/29 12:33:27;;;;;;;3.92;2.35;;;25.30;99.90;;;;;;1877976;74;21275;-84
2022/09/29 12:36:00;;;;;;;3.55;2.05;;;25.20;99.90;;;;;;1879072;75;21051;-85
2022/09/29 12:38:34;;;;;;;2.42;1.70;;;25.20;99.90;;;;;;1884248;75;21076;-85
2022/09/29 12:41:07;;;;;;;2.35;1.95;;;25.20;99.90;;;;;;1879947;74;21260;-85
2022/09/29 12:43:40;;;;;;;2.40;1.75;;;25.20;99.90;;;;;;1837060;76;21232;-84
2022/09/29 12:46:14;;;;;;;3.90;1.47;;;25.20;99.90;;;;;;1875048;74;21133;-85
2022/09/29 12:48:50;;;;;;;2.27;1.60;;;25.20;99.90;;;;;;1942222;73;21567;-85
2022/09/29 12:51:22;;;;;;;2.40;1.55;;;25.10;99.90;;;;;;1942822;73;21494;-84
2022/09/29 12:53:57;;;;;;;3.83;1.72;;;25.20;99.90;;;;;;1942820;72;21239;-84
2022/09/29 12:56:31;;;;;;;3.08;1.50;;;25.20;99.90;;;;;;1948430;73;21109;-84
2022/09/29 12:59:02;;;;;;;2.75;2.02;;;25.20;99.90;;;;;;1944016;73;21100;-83
2022/09/29 13:01:36;;;;;;;2.62;1.80;;;25.10;99.90;;;;;;1881877;76;21109;-85
2022/09/29 13:04:09;;;;;;;2.42;1.90;;;25.10;99.90;;;;;;1872966;75;21231;-84
2022/09/29 13:06:44;;;;;;;2.20;1.77;;;25.10;99.90;;;;;;1859801;75;21178;-85
2022/09/29 13:09:17;;;;;;;2.10;1.67;;;25.20;99.90;;;;;;1887375;74;21143;-85
2022/09/29 13:11:51;;;;;;;2.72;1.95;;;25.20;99.90;;;;;;1882098;74;21090;-86
2022/09/29 13:14:24;;;;;;;3.08;2.27;;;25.20;99.90;;;;;;1886345;74;21131;-84
2022/09/29 13:16:55;;;;;;;2.60;1.95;;;25.20;99.90;;;;;;1848921;76;21068;-86
2022/09/29 13:19:30;;;;;;;2.75;2.20;;;25.20;99.90;;;;;;1934641;74;21072;-85